createdAt,value
2023-04-10T01:21:52.178Z,7.10
2023-04-10T02:37:55.939Z,5.70
2023-04-10T02:58:15.241Z,5.40
2023-04-10T03:43:41.569Z,6.00
2023-04-10T04:59:42.158Z,7.80
2023-04-10T05:34:55.519Z,8.50
2023-04-10T06:00:43.552Z,8.90
2023-04-10T06:30:57.698Z,9.90
2023-04-10T07:16:13.100Z,11.30
2023-04-10T08:37:16.002Z,13.30
2023-04-10T09:18:03.701Z,14.10
2023-04-10T09:43:34.832Z,14.50
2023-04-10T10:13:39.316Z,14.60
2023-04-10T10:44:31.515Z,15.30
2023-04-10T11:14:23.645Z,16.00
2023-04-10T11:35:23.493Z,16.40
2023-04-10T11:39:41.888Z,16.50
2023-04-10T11:54:55.199Z,17.20
2023-04-10T12:15:30.905Z,17.50
2023-04-10T12:41:03.159Z,17.30
2023-04-10T13:11:37.059Z,18.30
2023-04-10T13:41:50.824Z,13.90
2023-04-10T14:12:26.283Z,13.20
2023-04-10T14:37:51.159Z,13.80
2023-04-10T15:18:21.130Z,15.90
2023-04-10T15:43:37.457Z,14.80
2023-04-10T16:04:04.940Z,15.40
2023-04-10T16:08:24.191Z,15.80
2023-04-10T17:03:32.231Z,13.10
2023-04-10T17:49:29.075Z,10.30
2023-04-10T18:24:24.142Z,10.10
2023-04-10T18:40:16.487Z,9.80
2023-04-10T19:05:17.054Z,9.10
2023-04-10T19:25:11.635Z,9.10
2023-04-10T19:51:07.110Z,8.50
2023-04-10T20:21:42.654Z,7.90
2023-04-10T20:47:01.214Z,7.40
2023-04-10T21:12:17.198Z,7.20
2023-04-10T21:32:38.824Z,6.80
2023-04-10T22:02:58.896Z,6.50
2023-04-10T22:33:13.150Z,5.90
2023-04-10T22:53:39.772Z,6.30
2023-04-10T23:24:00.092Z,5.80
